Time;durP1;ratioP1;P1;durP2;ratioP2;P2;SDS_P1;SDS_P2;PMS_P1;PMS_P2;Temp;Humidity;BMP_temperature;BMP_pressure;BME280_temperature;BME280_humidity;BME280_pressure;Samples;Min_cycle;Max_cycle;Signal;HPM_P1;HPM_P2
2020/12/12 00:00:01;;;;;;;2.15;2.00;;;;;;;18.95;46.72;98175.95;;;;-57
2020/12/12 00:03:01;;;;;;;2.17;2.02;;;;;;;18.93;46.78;98185.27;;;;-59
2020/12/12 00:06:01;;;;;;;2.07;1.90;;;;;;;18.90;46.78;98186.61;;;;-59
2020/12/12 00:09:01;;;;;;;2.09;1.95;;;;;;;18.89;46.74;98192.91;;;;-57
2020/12/12 00:12:01;;;;;;;2.19;1.99;;;;;;;18.87;46.73;98197.42;;;;-57
2020/12/12 00:15:01;;;;;;;2.33;1.95;;;;;;;18.85;46.76;98195.27;;;;-59
2020/12/12 00:18:01;;;;;;;2.12;1.95;;;;;;;18.84;46.76;98193.84;;;;-58
2020/12/12 00:21:01;;;;;;;3.31;2.23;;;;;;;18.81;46.77;98190.19;;;;-52
2020/12/12 00:24:01;;;;;;;2.33;2.07;;;;;;;18.79;46.78;98190.50;;;;-59
2020/12/12 00:27:01;;;;;;;2.01;1.88;;;;;;;18.77;46.81;98190.92;;;;-57
2020/12/12 00:30:01;;;;;;;2.29;2.09;;;;;;;18.74;46.84;98189.95;;;;-59
2020/12/12 00:33:01;;;;;;;2.11;1.91;;;;;;;18.73;46.82;98186.07;;;;-59
2020/12/12 00:36:01;;;;;;;2.20;2.00;;;;;;;18.71;46.76;98189.14;;;;-59
2020/12/12 00:39:01;;;;;;;2.24;2.04;;;;;;;18.68;46.82;98195.06;;;;-52
2020/12/12 00:42:01;;;;;;;2.17;1.97;;;;;;;18.67;46.82;98191.84;;;;-59
2020/12/12 00:45:01;;;;;;;2.22;2.02;;;;;;;18.65;46.90;98191.55;;;;-57
2020/12/12 00:48:01;;;;;;;2.16;1.96;;;;;;;18.64;46.86;98189.83;;;;-52
2020/12/12 00:51:01;;;;;;;2.00;1.90;;;;;;;18.62;46.88;98197.28;;;;-52
2020/12/12 00:54:01;;;;;;;2.26;2.06;;;;;;;18.60;46.89;98196.91;;;;-52
2020/12/12 00:57:01;;;;;;;2.03;1.91;;;;;;;18.58;46.91;98193.45;;;;-52
2020/12/12 01:00:01;;;;;;;2.04;1.89;;;;;;;18.57;46.94;98195.59;;;;-52
2020/12/12 01:03:01;;;;;;;2.25;2.01;;;;;;;18.55;46.93;98192.73;;;;-52
2020/12/12 01:06:01;;;;;;;2.27;2.07;;;;;;;18.54;46.97;98194.16;;;;-52
2020/12/12 01:09:01;;;;;;;2.01;1.89;;;;;;;18.52;46.94;98190.62;;;;-53
2020/12/12 01:12:01;;;;;;;1.98;1.88;;;;;;;18.51;46.96;98186.98;;;;-52
2020/12/12 01:15:01;;;;;;;2.16;1.97;;;;;;;18.49;46.94;98187.37;;;;-52
2020/12/12 01:18:01;;;;;;;2.15;1.96;;;;;;;18.47;46.95;98185.91;;;;-52
2020/12/12 01:21:01;;;;;;;2.21;2.01;;;;;;;18.45;46.99;98189.69;;;;-52
2020/12/12 01:24:01;;;;;;;2.20;2.00;;;;;;;18.44;46.97;98187.73;;;;-52
2020/12/12 01:27:01;;;;;;;2.38;2.17;;;;;;;18.43;46.96;98188.50;;;;-53
2020/12/12 01:30:01;;;;;;;2.08;1.88;;;;;;;18.40;47.04;98188.97;;;;-52
2020/12/12 01:33:01;;;;;;;2.19;2.03;;;;;;;18.39;47.02;98189.98;;;;-52
2020/12/12 01:36:01;;;;;;;2.07;1.93;;;;;;;18.38;47.07;98194.70;;;;-52
2020/12/12 01:39:01;;;;;;;2.18;1.98;;;;;;;18.37;47.01;98195.64;;;;-52
2020/12/12 01:42:01;;;;;;;2.20;2.00;;;;;;;18.35;47.04;98198.75;;;;-52
2020/12/12 01:45:01;;;;;;;2.13;1.98;;;;;;;18.33;47.12;98197.13;;;;-52
2020/12/12 01:48:01;;;;;;;2.00;1.90;;;;;;;18.32;47.10;98204.59;;;;-52
2020/12/12 01:51:01;;;;;;;2.10;1.90;;;;;;;18.31;47.09;98204.48;;;;-52
2020/12/12 01:54:01;;;;;;;2.07;1.87;;;;;;;18.29;47.03;98208.33;;;;-52
2020/12/12 01:57:01;;;;;;;1.98;1.87;;;;;;;18.28;47.03;98207.61;;;;-52
2020/12/12 02:00:01;;;;;;;2.24;1.98;;;;;;;18.26;47.09;98212.36;;;;-51
2020/12/12 02:03:01;;;;;;;2.11;1.92;;;;;;;18.25;47.14;98212.30;;;;-52
2020/12/12 02:06:01;;;;;;;2.26;2.06;;;;;;;18.24;47.14;98211.52;;;;-52
2020/12/12 02:09:01;;;;;;;2.19;2.00;;;;;;;18.23;47.16;98209.69;;;;-52
2020/12/12 02:12:01;;;;;;;2.37;1.99;;;;;;;18.22;47.25;98212.94;;;;-52
2020/12/12 02:15:01;;;;;;;2.37;1.99;;;;;;;18.20;47.17;98215.34;;;;-51
2020/12/12 02:18:01;;;;;;;2.09;1.92;;;;;;;18.19;47.16;98210.50;;;;-59
2020/12/12 02:21:01;;;;;;;2.20;2.00;;;;;;;18.17;47.18;98210.95;;;;-52
2020/12/12 02:24:01;;;;;;;2.14;2.00;;;;;;;18.16;47.14;98210.34;;;;-52
2020/12/12 02:27:01;;;;;;;1.99;1.89;;;;;;;18.15;47.19;98201.69;;;;-51
2020/12/12 02:30:01;;;;;;;1.93;1.83;;;;;;;18.14;47.27;98203.81;;;;-52
2020/12/12 02:33:01;;;;;;;2.09;1.89;;;;;;;18.14;47.21;98202.22;;;;-53
2020/12/12 02:36:01;;;;;;;1.98;1.88;;;;;;;18.12;47.23;98207.04;;;;-52
2020/12/12 02:39:01;;;;;;;2.19;1.97;;;;;;;18.10;47.23;98209.52;;;;-52
2020/12/12 02:42:01;;;;;;;1.91;1.80;;;;;;;18.11;47.24;98212.90;;;;-52
2020/12/12 02:45:01;;;;;;;2.13;1.93;;;;;;;18.09;47.29;98209.85;;;;-52
2020/12/12 02:48:01;;;;;;;2.25;2.05;;;;;;;18.08;47.26;98211.92;;;;-52
2020/12/12 02:51:01;;;;;;;1.90;1.80;;;;;;;18.06;47.25;98210.98;;;;-52
2020/12/12 02:54:01;;;;;;;2.13;1.93;;;;;;;18.05;47.21;98214.88;;;;-53
2020/12/12 02:57:01;;;;;;;2.18;1.98;;;;;;;18.05;47.29;98214.23;;;;-52
2020/12/12 03:00:01;;;;;;;1.92;1.82;;;;;;;18.03;47.29;98210.39;;;;-53
2020/12/12 03:03:01;;;;;;;2.16;1.95;;;;;;;18.04;47.22;98213.64;;;;-52
2020/12/12 03:06:01;;;;;;;1.97;1.86;;;;;;;18.01;47.29;98212.65;;;;-52
2020/12/12 03:09:01;;;;;;;1.99;1.85;;;;;;;18.01;47.21;98211.91;;;;-51
2020/12/12 03:12:01;;;;;;;2.09;1.89;;;;;;;18.00;47.31;98213.16;;;;-59
2020/12/12 03:15:01;;;;;;;2.07;1.89;;;;;;;17.98;47.25;98212.08;;;;-59
2020/12/12 03:18:01;;;;;;;2.18;1.92;;;;;;;17.97;47.27;98212.73;;;;-59
2020/12/12 03:21:01;;;;;;;1.97;1.87;;;;;;;17.96;47.36;98212.45;;;;-59
2020/12/12 03:24:01;;;;;;;2.22;2.02;;;;;;;17.95;47.27;98212.95;;;;-59
2020/12/12 03:27:01;;;;;;;2.11;1.91;;;;;;;17.94;47.29;98214.26;;;;-58
2020/12/12 03:30:01;;;;;;;2.02;1.92;;;;;;;17.93;47.27;98212.36;;;;-59
2020/12/12 03:33:01;;;;;;;2.13;1.93;;;;;;;17.92;47.34;98216.02;;;;-59
2020/12/12 03:36:01;;;;;;;1.89;1.79;;;;;;;17.92;47.26;98217.41;;;;-59
2020/12/12 03:39:01;;;;;;;2.05;1.93;;;;;;;17.90;47.39;98217.66;;;;-59
2020/12/12 03:42:01;;;;;;;2.09;1.90;;;;;;;17.89;47.32;98216.43;;;;-58
2020/12/12 03:45:01;;;;;;;2.14;2.00;;;;;;;17.88;47.32;98220.33;;;;-59
2020/12/12 03:48:01;;;;;;;1.95;1.85;;;;;;;17.88;47.34;98220.81;;;;-59
2020/12/12 03:51:01;;;;;;;2.10;1.94;;;;;;;17.86;47.33;98223.02;;;;-59
2020/12/12 03:54:01;;;;;;;2.07;1.95;;;;;;;17.86;47.27;98223.03;;;;-59
2020/12/12 03:57:01;;;;;;;2.00;1.90;;;;;;;17.84;47.32;98225.17;;;;-58
2020/12/12 04:00:01;;;;;;;2.27;2.07;;;;;;;17.84;47.36;98225.67;;;;-59
2020/12/12 04:03:01;;;;;;;2.09;1.94;;;;;;;17.83;47.31;98223.53;;;;-60
2020/12/12 04:06:01;;;;;;;2.60;1.88;;;;;;;17.82;47.35;98223.66;;;;-59
2020/12/12 04:09:01;;;;;;;2.16;1.96;;;;;;;17.81;47.39;98224.99;;;;-59
2020/12/12 04:12:01;;;;;;;1.90;1.80;;;;;;;17.81;47.36;98223.78;;;;-58
2020/12/12 04:15:01;;;;;;;2.01;1.91;;;;;;;17.79;47.40;98230.06;;;;-59
2020/12/12 04:18:01;;;;;;;1.90;1.80;;;;;;;17.79;47.43;98230.80;;;;-59
2020/12/12 04:21:01;;;;;;;1.89;1.79;;;;;;;17.77;47.33;98234.30;;;;-59
2020/12/12 04:24:01;;;;;;;1.99;1.88;;;;;;;17.77;47.34;98238.77;;;;-59
2020/12/12 04:27:01;;;;;;;2.54;1.72;;;;;;;17.76;47.41;98242.91;;;;-59
2020/12/12 04:30:01;;;;;;;1.97;1.87;;;;;;;17.76;47.41;98243.56;;;;-59
2020/12/12 04:33:01;;;;;;;1.94;1.82;;;;;;;17.75;47.47;98246.19;;;;-59
2020/12/12 04:36:01;;;;;;;2.59;1.89;;;;;;;17.74;47.41;98244.10;;;;-59
2020/12/12 04:39:01;;;;;;;1.88;1.78;;;;;;;17.74;47.42;98246.84;;;;-59
2020/12/12 04:42:01;;;;;;;2.15;1.95;;;;;;;17.72;47.37;98246.41;;;;-59
2020/12/12 04:45:01;;;;;;;2.09;1.89;;;;;;;17.72;47.41;98245.20;;;;-52
2020/12/12 04:48:01;;;;;;;2.10;1.93;;;;;;;17.72;47.42;98254.27;;;;-52
2020/12/12 04:51:01;;;;;;;1.90;1.80;;;;;;;17.71;47.44;98250.66;;;;-52
2020/12/12 04:54:01;;;;;;;2.11;1.91;;;;;;;17.71;47.45;98253.82;;;;-52
2020/12/12 04:57:01;;;;;;;1.99;1.89;;;;;;;17.69;47.44;98258.87;;;;-52
2020/12/12 05:00:01;;;;;;;1.94;1.84;;;;;;;17.67;47.48;98256.30;;;;-52
2020/12/12 05:03:01;;;;;;;2.21;2.01;;;;;;;17.66;47.55;98260.71;;;;-52
2020/12/12 05:06:01;;;;;;;1.91;1.81;;;;;;;17.66;47.48;98255.13;;;;-52
2020/12/12 05:09:01;;;;;;;2.00;1.90;;;;;;;17.65;47.49;98260.64;;;;-52
2020/12/12 05:12:01;;;;;;;2.00;1.90;;;;;;;17.64;47.50;98258.09;;;;-53
2020/12/12 05:15:01;;;;;;;2.13;1.93;;;;;;;17.64;47.48;98260.20;;;;-52
2020/12/12 05:18:01;;;;;;;2.00;1.89;;;;;;;17.63;47.48;98262.08;;;;-52
2020/12/12 05:21:01;;;;;;;2.00;1.90;;;;;;;17.62;47.45;98261.22;;;;-52
2020/12/12 05:24:01;;;;;;;2.20;2.00;;;;;;;17.62;47.46;98260.01;;;;-53
2020/12/12 05:27:01;;;;;;;1.91;1.81;;;;;;;17.61;47.51;98265.84;;;;-59
2020/12/12 05:30:01;;;;;;;2.24;2.04;;;;;;;17.59;47.46;98266.84;;;;-59
2020/12/12 05:33:01;;;;;;;2.25;2.05;;;;;;;17.60;47.53;98268.15;;;;-59
2020/12/12 05:36:01;;;;;;;1.93;1.83;;;;;;;17.58;47.52;98264.84;;;;-59
2020/12/12 05:39:01;;;;;;;1.85;1.75;;;;;;;17.58;47.61;98271.00;;;;-59
2020/12/12 05:42:01;;;;;;;2.01;1.83;;;;;;;17.57;47.56;98266.47;;;;-59
2020/12/12 05:45:01;;;;;;;2.73;1.81;;;;;;;17.57;47.53;98269.64;;;;-52
2020/12/12 05:48:01;;;;;;;1.89;1.79;;;;;;;17.56;47.56;98267.25;;;;-52
2020/12/12 05:51:01;;;;;;;2.06;1.91;;;;;;;17.55;47.56;98269.42;;;;-52
2020/12/12 05:54:01;;;;;;;1.90;1.80;;;;;;;17.55;47.59;98273.17;;;;-53
2020/12/12 05:57:01;;;;;;;1.90;1.80;;;;;;;17.54;47.60;98270.70;;;;-59
2020/12/12 06:00:01;;;;;;;2.05;1.90;;;;;;;17.54;47.55;98277.97;;;;-59
2020/12/12 06:03:01;;;;;;;1.90;1.80;;;;;;;17.53;47.58;98277.82;;;;-59
2020/12/12 06:06:01;;;;;;;2.00;1.90;;;;;;;17.53;47.56;98276.78;;;;-59
2020/12/12 06:09:01;;;;;;;2.14;1.94;;;;;;;17.52;47.52;98275.10;;;;-59
2020/12/12 06:12:01;;;;;;;2.00;1.89;;;;;;;17.52;47.53;98280.38;;;;-59
2020/12/12 06:15:01;;;;;;;2.10;1.90;;;;;;;17.52;47.55;98277.39;;;;-52
2020/12/12 06:18:01;;;;;;;2.07;1.88;;;;;;;17.51;47.64;98282.62;;;;-52
2020/12/12 06:21:01;;;;;;;2.07;1.86;;;;;;;17.52;47.59;98285.63;;;;-52
2020/12/12 06:24:03;;;;;;;1.86;1.76;;;;;;;17.54;47.68;98288.43;;;;-52
2020/12/12 06:27:01;;;;;;;1.90;1.80;;;;;;;17.55;47.66;98290.82;;;;-59
2020/12/12 06:30:01;;;;;;;1.83;1.73;;;;;;;17.56;47.57;98295.84;;;;-52
2020/12/12 06:33:01;;;;;;;2.00;1.90;;;;;;;17.58;47.52;98299.59;;;;-52
2020/12/12 06:36:01;;;;;;;1.80;1.70;;;;;;;17.60;47.61;98302.87;;;;-52
2020/12/12 06:39:01;;;;;;;1.78;1.68;;;;;;;17.62;47.66;98300.50;;;;-52
2020/12/12 06:42:01;;;;;;;1.88;1.76;;;;;;;17.64;47.76;98306.84;;;;-58
2020/12/12 06:45:01;;;;;;;1.90;1.80;;;;;;;17.67;47.79;98307.83;;;;-58
2020/12/12 06:48:01;;;;;;;1.86;1.76;;;;;;;17.70;47.75;98311.34;;;;-53
2020/12/12 06:51:01;;;;;;;1.77;1.67;;;;;;;17.74;47.74;98316.50;;;;-59
2020/12/12 06:54:01;;;;;;;1.77;1.67;;;;;;;17.77;47.77;98320.00;;;;-58
2020/12/12 06:57:01;;;;;;;1.60;1.50;;;;;;;17.82;47.77;98322.56;;;;-58
2020/12/12 07:00:01;;;;;;;1.67;1.57;;;;;;;17.84;47.80;98322.55;;;;-52
2020/12/12 07:03:01;;;;;;;1.86;1.76;;;;;;;17.89;47.84;98328.14;;;;-52
2020/12/12 07:06:01;;;;;;;1.71;1.61;;;;;;;17.92;47.82;98330.34;;;;-52
2020/12/12 07:09:01;;;;;;;1.72;1.62;;;;;;;17.95;47.83;98332.22;;;;-59
2020/12/12 07:12:01;;;;;;;1.85;1.73;;;;;;;17.97;47.81;98336.22;;;;-59
2020/12/12 07:15:01;;;;;;;1.74;1.64;;;;;;;17.99;47.81;98342.02;;;;-59
2020/12/12 07:18:01;;;;;;;1.97;1.79;;;;;;;18.01;47.84;98347.73;;;;-59
2020/12/12 07:21:01;;;;;;;1.80;1.70;;;;;;;18.02;47.90;98347.23;;;;-59
2020/12/12 07:24:01;;;;;;;1.72;1.62;;;;;;;18.03;47.85;98357.65;;;;-59
2020/12/12 07:27:01;;;;;;;1.82;1.72;;;;;;;18.04;47.77;98357.89;;;;-59
2020/12/12 07:30:01;;;;;;;1.83;1.73;;;;;;;18.04;47.76;98359.35;;;;-51
2020/12/12 07:33:01;;;;;;;1.80;1.70;;;;;;;18.04;47.76;98366.79;;;;-52
2020/12/12 07:36:01;;;;;;;1.75;1.65;;;;;;;18.04;47.80;98372.53;;;;-58
2020/12/12 07:39:01;;;;;;;1.71;1.60;;;;;;;18.05;47.73;98379.23;;;;-52
2020/12/12 07:42:01;;;;;;;1.69;1.59;;;;;;;18.05;47.79;98384.52;;;;-51
2020/12/12 07:45:09;;;;;;;1.81;1.71;;;;;;;18.05;47.74;98388.81;;;;-53
2020/12/12 07:48:01;;;;;;;1.70;1.60;;;;;;;18.04;47.77;98391.83;;;;-57
2020/12/12 07:51:01;;;;;;;1.60;1.50;;;;;;;18.05;47.72;98398.30;;;;-53
2020/12/12 07:54:01;;;;;;;1.78;1.68;;;;;;;18.05;47.73;98403.22;;;;-52
2020/12/12 07:57:02;;;;;;;1.73;1.63;;;;;;;18.05;47.73;98406.64;;;;-58
2020/12/12 08:00:01;;;;;;;1.68;1.58;;;;;;;18.04;47.67;98409.09;;;;-57
2020/12/12 08:03:01;;;;;;;1.69;1.59;;;;;;;18.04;47.64;98415.27;;;;-52
2020/12/12 08:06:01;;;;;;;1.70;1.60;;;;;;;18.03;47.65;98419.31;;;;-57
2020/12/12 08:09:01;;;;;;;1.70;1.60;;;;;;;18.04;47.70;98423.05;;;;-57
2020/12/12 08:12:01;;;;;;;1.79;1.69;;;;;;;18.03;47.75;98424.91;;;;-57
2020/12/12 08:15:02;;;;;;;1.70;1.60;;;;;;;18.02;47.73;98432.47;;;;-57
2020/12/12 08:18:01;;;;;;;1.77;1.67;;;;;;;18.02;47.74;98436.36;;;;-52
2020/12/12 08:21:01;;;;;;;1.77;1.67;;;;;;;18.02;47.67;98435.09;;;;-53
2020/12/12 08:24:01;;;;;;;1.80;1.70;;;;;;;18.02;47.64;98436.06;;;;-59
2020/12/12 08:27:01;;;;;;;1.79;1.69;;;;;;;18.01;47.71;98436.86;;;;-52
2020/12/12 08:30:01;;;;;;;1.80;1.70;;;;;;;18.00;47.69;98445.48;;;;-52
2020/12/12 08:33:01;;;;;;;1.70;1.60;;;;;;;17.99;47.70;98449.54;;;;-52
2020/12/12 08:36:01;;;;;;;1.63;1.53;;;;;;;17.99;47.67;98459.04;;;;-52
2020/12/12 08:39:01;;;;;;;1.76;1.66;;;;;;;17.98;47.65;98457.03;;;;-52
2020/12/12 08:42:01;;;;;;;1.80;1.70;;;;;;;17.97;47.66;98462.05;;;;-53
2020/12/12 08:45:01;;;;;;;3.15;1.75;;;;;;;17.97;47.90;98464.17;;;;-53
2020/12/12 08:48:01;;;;;;;2.12;1.85;;;;;;;18.01;48.24;98466.61;;;;-57
2020/12/12 08:51:01;;;;;;;1.93;1.80;;;;;;;18.03;48.40;98463.39;;;;-58
2020/12/12 08:54:01;;;;;;;2.33;1.87;;;;;;;18.05;48.81;98466.86;;;;-58
2020/12/12 08:57:01;;;;;;;1.83;1.70;;;;;;;18.08;48.64;98478.06;;;;-56
2020/12/12 09:00:01;;;;;;;2.58;1.70;;;;;;;18.10;48.59;98481.42;;;;-55
2020/12/12 09:03:01;;;;;;;5.89;2.08;;;;;;;18.14;49.02;98485.18;;;;-51
2020/12/12 09:06:01;;;;;;;7.17;2.05;;;;;;;18.14;48.81;98481.83;;;;-54
2020/12/12 09:09:01;;;;;;;4.56;2.20;;;;;;;18.18;48.97;98489.61;;;;-59
2020/12/12 09:12:01;;;;;;;3.13;1.97;;;;;;;18.21;49.00;98492.97;;;;-50
2020/12/12 09:15:01;;;;;;;3.29;1.89;;;;;;;18.26;49.30;98495.86;;;;-56
2020/12/12 09:18:01;;;;;;;3.61;1.85;;;;;;;18.30;49.30;98499.51;;;;-50
2020/12/12 09:21:01;;;;;;;2.95;1.97;;;;;;;18.35;49.37;98508.91;;;;-50
2020/12/12 09:24:01;;;;;;;4.72;1.84;;;;;;;18.40;49.43;98511.46;;;;-51
2020/12/12 09:27:01;;;;;;;3.17;1.91;;;;;;;18.45;49.36;98514.44;;;;-52
2020/12/12 09:30:01;;;;;;;4.51;1.73;;;;;;;18.50;49.44;98519.61;;;;-59
2020/12/12 09:33:01;;;;;;;2.51;1.73;;;;;;;18.55;49.29;98525.35;;;;-52
2020/12/12 09:36:01;;;;;;;2.13;1.71;;;;;;;18.58;49.17;98524.98;;;;-55
2020/12/12 09:39:01;;;;;;;2.50;1.71;;;;;;;18.62;49.28;98528.30;;;;-51
2020/12/12 09:42:01;;;;;;;3.64;1.77;;;;;;;18.65;49.15;98534.13;;;;-57
2020/12/12 09:45:01;;;;;;;2.61;1.85;;;;;;;18.68;49.11;98540.43;;;;-59
2020/12/12 09:48:01;;;;;;;2.46;1.78;;;;;;;18.70;49.15;98541.50;;;;-52
2020/12/12 09:51:01;;;;;;;1.87;1.74;;;;;;;18.75;49.17;98540.59;;;;-58
2020/12/12 09:54:01;;;;;;;2.08;1.70;;;;;;;18.80;49.23;98545.30;;;;-52
2020/12/12 09:57:01;;;;;;;2.26;1.65;;;;;;;18.83;49.18;98548.48;;;;-51
2020/12/12 10:00:01;;;;;;;2.20;1.69;;;;;;;18.85;49.22;98547.77;;;;-56
2020/12/12 10:03:01;;;;;;;2.83;1.57;;;;;;;18.89;49.12;98550.63;;;;-59
2020/12/12 10:06:01;;;;;;;2.01;1.60;;;;;;;18.93;49.05;98553.45;;;;-52
2020/12/12 10:09:01;;;;;;;2.95;1.80;;;;;;;18.97;48.92;98553.53;;;;-58
2020/12/12 10:12:01;;;;;;;6.02;1.85;;;;;;;18.97;48.62;98554.73;;;;-52
2020/12/12 10:15:01;;;;;;;4.24;1.83;;;;;;;19.01;48.84;98555.14;;;;-52
2020/12/12 10:18:01;;;;;;;2.58;1.93;;;;;;;19.05;48.97;98556.42;;;;-57
2020/12/12 10:21:01;;;;;;;2.09;1.87;;;;;;;19.07;48.85;98562.56;;;;-55
2020/12/12 10:24:01;;;;;;;2.25;1.84;;;;;;;19.09;48.66;98558.70;;;;-53
2020/12/12 10:27:01;;;;;;;2.09;1.89;;;;;;;19.11;48.66;98558.91;;;;-50
2020/12/12 10:30:01;;;;;;;2.50;1.81;;;;;;;19.14;48.46;98560.22;;;;-64
2020/12/12 10:33:01;;;;;;;2.10;1.71;;;;;;;19.16;48.64;98560.17;;;;-56
2020/12/12 10:36:01;;;;;;;3.11;1.91;;;;;;;19.18;48.52;98566.60;;;;-55
2020/12/12 10:39:01;;;;;;;2.69;1.86;;;;;;;19.21;48.41;98571.97;;;;-54
2020/12/12 10:42:01;;;;;;;2.91;1.94;;;;;;;19.24;48.64;98565.58;;;;-59
2020/12/12 10:45:01;;;;;;;2.58;1.88;;;;;;;19.26;48.31;98578.04;;;;-56
2020/12/12 10:48:01;;;;;;;2.91;1.71;;;;;;;19.28;48.23;98578.39;;;;-56
2020/12/12 10:51:01;;;;;;;2.03;1.65;;;;;;;19.27;48.17;98578.58;;;;-60
2020/12/12 10:54:01;;;;;;;1.87;1.69;;;;;;;19.28;48.08;98575.31;;;;-59
2020/12/12 10:57:01;;;;;;;2.41;1.80;;;;;;;19.28;48.09;98577.43;;;;-61
2020/12/12 11:00:03;;;;;;;1.85;1.71;;;;;;;19.30;48.03;98577.86;;;;-56
2020/12/12 11:03:01;;;;;;;2.11;1.91;;;;;;;19.33;48.01;98580.41;;;;-56
2020/12/12 11:06:01;;;;;;;2.27;1.76;;;;;;;19.34;47.88;98585.90;;;;-56
2020/12/12 11:09:01;;;;;;;1.77;1.67;;;;;;;19.36;47.94;98587.72;;;;-59
2020/12/12 11:12:01;;;;;;;1.72;1.62;;;;;;;19.36;47.86;98591.22;;;;-53
2020/12/12 11:15:01;;;;;;;1.82;1.70;;;;;;;19.38;47.78;98596.84;;;;-57
2020/12/12 11:18:01;;;;;;;2.07;1.68;;;;;;;19.39;47.76;98597.63;;;;-56
2020/12/12 11:21:01;;;;;;;1.75;1.65;;;;;;;19.40;47.75;98597.28;;;;-54
2020/12/12 11:24:01;;;;;;;1.89;1.68;;;;;;;19.42;47.71;98597.48;;;;-53
2020/12/12 11:27:01;;;;;;;2.06;1.79;;;;;;;19.43;47.68;98597.22;;;;-56
2020/12/12 11:30:01;;;;;;;1.81;1.67;;;;;;;19.44;47.66;98597.69;;;;-56
2020/12/12 11:33:03;;;;;;;1.91;1.71;;;;;;;19.44;47.65;98598.75;;;;-56
2020/12/12 11:36:15;;;;;;;1.91;1.70;;;;;;;19.45;47.64;98604.97;;;;-54
2020/12/12 11:39:05;;;;;;;2.33;1.64;;;;;;;19.45;47.63;98600.98;;;;-60
2020/12/12 11:42:15;;;;;;;1.73;1.63;;;;;;;19.45;47.58;98602.61;;;;-53
2020/12/12 11:45:23;;;;;;;1.60;1.50;;;;;;;19.46;47.58;98603.58;;;;-53
2020/12/12 11:48:01;;;;;;;1.67;1.57;;;;;;;19.47;47.53;98611.27;;;;-54
2020/12/12 11:51:01;;;;;;;1.77;1.67;;;;;;;19.48;47.54;98610.59;;;;-61
2020/12/12 11:54:01;;;;;;;1.69;1.59;;;;;;;19.48;47.49;98610.16;;;;-62
2020/12/12 11:57:01;;;;;;;1.79;1.69;;;;;;;19.50;47.48;98615.26;;;;-53
2020/12/12 12:00:07;;;;;;;2.08;1.87;;;;;;;19.51;47.46;98615.97;;;;-60
2020/12/12 12:03:01;;;;;;;1.71;1.61;;;;;;;19.52;47.47;98616.49;;;;-62
2020/12/12 12:06:01;;;;;;;1.85;1.70;;;;;;;19.53;47.45;98616.40;;;;-62
2020/12/12 12:09:16;;;;;;;1.73;1.63;;;;;;;19.53;47.46;98619.98;;;;-56
2020/12/12 12:12:01;;;;;;;1.69;1.59;;;;;;;19.55;47.39;98624.25;;;;-61
2020/12/12 12:15:01;;;;;;;2.39;1.70;;;;;;;19.56;47.43;98626.47;;;;-60
2020/12/12 12:18:01;;;;;;;1.79;1.69;;;;;;;19.58;47.37;98630.33;;;;-60
2020/12/12 12:21:01;;;;;;;1.70;1.60;;;;;;;19.59;47.37;98632.18;;;;-59
2020/12/12 12:24:01;;;;;;;1.75;1.65;;;;;;;19.59;47.37;98633.56;;;;-60
2020/12/12 12:27:03;;;;;;;1.62;1.51;;;;;;;19.60;47.32;98633.45;;;;-61
2020/12/12 12:30:01;;;;;;;1.61;1.51;;;;;;;19.61;47.30;98641.88;;;;-61
2020/12/12 12:33:00;;;;;;;1.69;1.51;;;;;;;19.61;47.29;98643.45;;;;-60
2020/12/12 12:36:01;;;;;;;1.57;1.47;;;;;;;19.61;47.31;98645.47;;;;-59
2020/12/12 12:39:01;;;;;;;1.69;1.59;;;;;;;19.62;47.33;98648.84;;;;-59
2020/12/12 12:42:03;;;;;;;1.67;1.57;;;;;;;19.64;47.31;98652.48;;;;-60
2020/12/12 12:45:01;;;;;;;1.64;1.54;;;;;;;19.63;47.31;98655.91;;;;-61
2020/12/12 12:48:01;;;;;;;1.88;1.60;;;;;;;19.64;47.30;98659.77;;;;-61
2020/12/12 12:51:01;;;;;;;1.69;1.59;;;;;;;19.66;47.27;98658.91;;;;-60
2020/12/12 12:54:01;;;;;;;1.62;1.51;;;;;;;19.67;47.25;98659.13;;;;-59
2020/12/12 12:57:01;;;;;;;2.01;1.63;;;;;;;19.67;47.33;98662.31;;;;-61
2020/12/12 13:00:01;;;;;;;1.79;1.56;;;;;;;19.68;47.30;98664.39;;;;-59
2020/12/12 13:03:01;;;;;;;1.77;1.67;;;;;;;19.68;47.24;98665.60;;;;-59
2020/12/12 13:06:01;;;;;;;1.61;1.51;;;;;;;19.69;47.23;98667.37;;;;-53
2020/12/12 13:09:01;;;;;;;1.73;1.60;;;;;;;19.70;47.29;98667.47;;;;-53
2020/12/12 13:12:01;;;;;;;1.65;1.55;;;;;;;19.71;47.28;98669.88;;;;-61
2020/12/12 13:15:01;;;;;;;1.71;1.61;;;;;;;19.71;47.24;98670.44;;;;-61
2020/12/12 13:18:03;;;;;;;1.70;1.60;;;;;;;19.72;47.20;98668.50;;;;-54
2020/12/12 13:21:04;;;;;;;1.88;1.69;;;;;;;19.74;47.22;98675.45;;;;-54
2020/12/12 13:24:01;;;;;;;1.69;1.59;;;;;;;19.74;47.19;98676.49;;;;-57
2020/12/12 13:27:01;;;;;;;1.71;1.61;;;;;;;19.75;47.21;98679.68;;;;-56
2020/12/12 13:30:16;;;;;;;2.27;1.74;;;;;;;19.76;47.17;98678.00;;;;-61
2020/12/12 13:33:01;;;;;;;2.73;1.70;;;;;;;19.79;47.30;98679.38;;;;-61
2020/12/12 13:36:00;;;;;;;5.09;1.79;;;;;;;19.83;48.04;98682.19;;;;-51
2020/12/12 13:39:01;;;;;;;1.74;1.62;;;;;;;19.87;48.61;98689.98;;;;-59
2020/12/12 13:42:01;;;;;;;2.73;1.74;;;;;;;19.91;48.70;98690.53;;;;-53
2020/12/12 13:45:01;;;;;;;3.55;1.73;;;;;;;19.92;48.06;98694.00;;;;-47
2020/12/12 13:48:01;;;;;;;4.11;2.15;;;;;;;19.92;47.86;98695.72;;;;-58
2020/12/12 13:51:00;;;;;;;5.26;2.23;;;;;;;19.93;48.01;98693.52;;;;-54
2020/12/12 13:54:01;;;;;;;3.05;1.81;;;;;;;19.96;48.08;98695.04;;;;-58
2020/12/12 13:57:01;;;;;;;3.72;1.66;;;;;;;19.99;48.04;98701.33;;;;-63
2020/12/12 14:00:01;;;;;;;3.04;1.97;;;;;;;19.99;48.00;98706.05;;;;-57
2020/12/12 14:03:01;;;;;;;2.95;1.87;;;;;;;19.99;48.09;98710.59;;;;-51
2020/12/12 14:06:03;;;;;;;2.94;1.89;;;;;;;20.02;48.01;98713.87;;;;-58
2020/12/12 14:09:23;;;;;;;3.60;1.79;;;;;;;20.04;48.01;98720.56;;;;-59
2020/12/12 14:21:53;;;;;;;2.22;1.91;;;;;;;20.13;48.14;98741.88;;;;-59
2020/12/12 14:25:04;;;;;;;4.67;2.13;;;;;;;20.14;48.11;98751.95;;;;-57
2020/12/12 14:28:43;;;;;;;5.73;1.89;;;;;;;20.15;48.05;98758.10;;;;-53
2020/12/12 14:31:01;;;;;;;2.31;1.93;;;;;;;20.16;48.08;98761.77;;;;-53
2020/12/12 14:34:01;;;;;;;4.43;2.12;;;;;;;20.18;48.06;98767.63;;;;-56
2020/12/12 14:37:00;;;;;;;2.61;1.73;;;;;;;20.18;47.94;98770.88;;;;-57
2020/12/12 14:40:01;;;;;;;4.58;1.96;;;;;;;20.21;48.10;98777.49;;;;-52
2020/12/12 14:43:01;;;;;;;3.73;1.80;;;;;;;20.20;47.95;98779.30;;;;-52
2020/12/12 14:46:00;;;;;;;3.13;1.83;;;;;;;20.21;48.02;98786.36;;;;-51
2020/12/12 14:49:01;;;;;;;3.17;1.69;;;;;;;20.22;48.10;98792.76;;;;-51
2020/12/12 14:52:01;;;;;;;4.65;1.85;;;;;;;20.23;48.03;98794.53;;;;-51
2020/12/12 14:55:01;;;;;;;2.57;1.88;;;;;;;20.24;48.04;98798.17;;;;-51
2020/12/12 14:58:01;;;;;;;2.07;1.73;;;;;;;20.25;48.01;98809.52;;;;-50
2020/12/12 15:01:01;;;;;;;2.99;1.81;;;;;;;20.26;48.17;98810.46;;;;-50
2020/12/12 15:04:01;;;;;;;5.04;1.93;;;;;;;20.25;48.13;98812.45;;;;-51
2020/12/12 15:07:01;;;;;;;3.01;1.88;;;;;;;20.27;48.30;98820.11;;;;-49
2020/12/12 15:10:00;;;;;;;2.71;1.77;;;;;;;20.29;48.29;98824.88;;;;-51
2020/12/12 15:13:01;;;;;;;2.67;1.69;;;;;;;20.32;48.19;98833.38;;;;-48
2020/12/12 15:16:01;;;;;;;3.47;1.87;;;;;;;20.32;48.19;98833.84;;;;-49
2020/12/12 15:19:01;;;;;;;2.51;1.96;;;;;;;20.33;48.23;98836.35;;;;-49
2020/12/12 15:22:01;;;;;;;3.01;1.89;;;;;;;20.33;48.28;98841.05;;;;-60
2020/12/12 15:25:00;;;;;;;3.03;1.79;;;;;;;20.34;48.37;98846.00;;;;-52
2020/12/12 15:28:01;;;;;;;2.54;1.72;;;;;;;20.35;48.44;98852.32;;;;-52
2020/12/12 15:31:01;;;;;;;3.79;1.83;;;;;;;20.34;48.37;98858.94;;;;-52
2020/12/12 15:34:01;;;;;;;2.42;1.80;;;;;;;20.35;48.38;98863.55;;;;-54
2020/12/12 15:37:01;;;;;;;2.61;1.81;;;;;;;20.33;48.45;98866.66;;;;-53
2020/12/12 15:40:01;;;;;;;1.95;1.80;;;;;;;20.34;48.65;98867.00;;;;-57
2020/12/12 15:43:01;;;;;;;2.07;1.80;;;;;;;20.34;48.57;98872.95;;;;-53
2020/12/12 15:46:01;;;;;;;2.48;1.95;;;;;;;20.34;48.45;98875.79;;;;-51
2020/12/12 15:49:01;;;;;;;2.27;1.85;;;;;;;20.35;48.42;98879.49;;;;-51
2020/12/12 15:52:01;;;;;;;2.40;1.85;;;;;;;20.36;48.35;98882.31;;;;-52
2020/12/12 15:55:01;;;;;;;2.95;1.84;;;;;;;20.34;48.04;98889.88;;;;-52
2020/12/12 15:58:00;;;;;;;2.54;1.83;;;;;;;20.31;47.89;98896.00;;;;-52
2020/12/12 16:01:01;;;;;;;2.59;1.93;;;;;;;20.28;47.74;98902.12;;;;-61
2020/12/12 16:04:01;;;;;;;1.95;1.78;;;;;;;20.28;47.65;98908.47;;;;-61
2020/12/12 16:07:01;;;;;;;3.21;1.93;;;;;;;20.25;47.61;98912.56;;;;-60
2020/12/12 16:10:01;;;;;;;2.04;1.93;;;;;;;20.24;47.51;98916.27;;;;-60
2020/12/12 16:13:01;;;;;;;3.04;2.09;;;;;;;20.24;47.48;98922.61;;;;-60
2020/12/12 16:16:01;;;;;;;5.40;2.11;;;;;;;20.22;47.79;98919.98;;;;-53
2020/12/12 16:19:01;;;;;;;7.41;2.51;;;;;;;20.18;47.19;98923.61;;;;-62
2020/12/12 16:22:00;;;;;;;7.49;2.41;;;;;;;20.18;47.35;98929.81;;;;-62
2020/12/12 16:25:01;;;;;;;2.90;2.10;;;;;;;20.17;47.29;98932.42;;;;-61
2020/12/12 16:28:01;;;;;;;3.85;2.31;;;;;;;20.16;47.28;98939.55;;;;-63
2020/12/12 16:31:00;;;;;;;4.68;2.27;;;;;;;20.15;47.28;98943.78;;;;-62
2020/12/12 16:34:00;;;;;;;2.86;2.21;;;;;;;20.13;47.31;98947.47;;;;-62
2020/12/12 16:37:01;;;;;;;5.95;2.23;;;;;;;20.11;47.32;98950.14;;;;-62
2020/12/12 16:40:00;;;;;;;2.59;2.09;;;;;;;20.08;47.26;98954.80;;;;-62
2020/12/12 16:43:01;;;;;;;2.95;2.20;;;;;;;20.09;47.25;98959.45;;;;-62
2020/12/12 16:46:01;;;;;;;2.27;2.07;;;;;;;20.06;47.24;98962.17;;;;-58
2020/12/12 16:49:00;;;;;;;5.23;2.21;;;;;;;20.04;47.20;98966.53;;;;-57
2020/12/12 16:52:01;;;;;;;3.31;2.28;;;;;;;20.01;47.25;98969.22;;;;-57
2020/12/12 16:55:01;;;;;;;2.54;2.31;;;;;;;19.99;47.30;98973.94;;;;-58
2020/12/12 16:58:01;;;;;;;3.73;2.30;;;;;;;19.97;47.27;98982.92;;;;-58
2020/12/12 17:01:01;;;;;;;2.51;2.31;;;;;;;19.95;47.27;98991.25;;;;-57
2020/12/12 17:04:00;;;;;;;3.06;2.32;;;;;;;19.94;47.23;98992.83;;;;-54